Time;durP1;ratioP1;P1;durP2;ratioP2;P2;SDS_P1;SDS_P2;PMS_P1;PMS_P2;Temp;Humidity;BMP_temperature;BMP_pressure;BME280_temperature;BME280_humidity;BME280_pressure;Samples;Min_cycle;Max_cycle;Signal;HPM_P1;HPM_P2
2021/05/26 00:01:18;;;;;;;5.00;1.20;;;11.70;99.90;;;;;;5042129;28;20409;-52
2021/05/26 00:03:44;;;;;;;4.40;1.30;;;11.70;99.90;;;;;;5052225;28;20390;-61
2021/05/26 00:06:10;;;;;;;4.90;1.40;;;11.80;99.90;;;;;;5034470;28;20414;-52
2021/05/26 00:08:37;;;;;;;4.20;1.30;;;11.80;99.90;;;;;;5032963;28;20394;-52
2021/05/26 00:11:09;;;;;;;4.78;1.10;;;11.80;99.90;;;;;;5034495;28;20853;-52
2021/05/26 00:13:35;;;;;;;4.60;1.20;;;11.70;99.90;;;;;;5032814;28;20859;-52
2021/05/26 00:16:01;;;;;;;5.83;1.30;;;11.80;99.90;;;;;;5064583;28;20409;-52
2021/05/26 00:18:27;;;;;;;4.82;1.30;;;11.80;99.90;;;;;;5051627;28;20417;-51
2021/05/26 00:20:53;;;;;;;4.67;1.30;;;11.80;99.90;;;;;;5050253;28;20504;-52
2021/05/26 00:23:21;;;;;;;6.20;1.60;;;11.80;99.90;;;;;;5047254;28;20451;-52
2021/05/26 00:25:46;;;;;;;4.45;1.20;;;11.90;99.90;;;;;;5032185;28;20387;-62
2021/05/26 00:28:13;;;;;;;5.47;1.30;;;11.90;99.90;;;;;;5034831;28;20382;-52
2021/05/26 00:30:45;;;;;;;4.53;1.33;;;11.90;99.90;;;;;;5037136;28;20391;-52
2021/05/26 00:33:11;;;;;;;6.00;1.30;;;12.00;99.90;;;;;;5037554;28;20983;-52
2021/05/26 00:35:36;;;;;;;5.40;1.40;;;12.10;99.90;;;;;;5035050;28;20487;-53
2021/05/26 00:38:05;;;;;;;4.20;1.20;;;12.10;99.90;;;;;;5031474;28;20445;-52
2021/05/26 00:40:32;;;;;;;5.10;1.50;;;12.10;99.90;;;;;;5032484;28;20413;-52
2021/05/26 00:42:59;;;;;;;5.70;1.27;;;12.10;99.90;;;;;;5031361;28;20425;-52
2021/05/26 00:45:26;;;;;;;4.60;1.30;;;12.00;99.90;;;;;;5049862;28;20840;-52
2021/05/26 00:47:52;;;;;;;4.20;1.20;;;12.00;99.90;;;;;;5031573;28;20417;-52
2021/05/26 00:50:26;;;;;;;3.80;1.00;;;12.00;99.90;;;;;;5031788;28;20965;-51
2021/05/26 00:52:56;;;;;;;4.28;1.40;;;12.00;99.90;;;;;;5035166;28;20386;-52
2021/05/26 00:55:22;;;;;;;6.70;1.67;;;12.00;99.90;;;;;;5035228;28;20891;-52
2021/05/26 00:57:49;;;;;;;5.80;1.30;;;12.10;99.90;;;;;;5035956;28;20431;-61
2021/05/26 01:00:19;;;;;;;4.80;1.40;;;12.00;99.90;;;;;;5049328;28;20409;-52
2021/05/26 01:02:46;;;;;;;4.70;1.30;;;12.10;99.90;;;;;;5043452;28;20391;-62
2021/05/26 01:05:14;;;;;;;3.97;1.20;;;12.20;99.90;;;;;;5034445;28;20766;-52
2021/05/26 01:07:40;;;;;;;4.40;1.30;;;12.30;99.90;;;;;;5044242;28;20376;-51
2021/05/26 01:10:08;;;;;;;5.83;1.20;;;12.20;99.90;;;;;;5030824;28;20891;-52
2021/05/26 01:12:34;;;;;;;6.18;1.58;;;12.20;99.90;;;;;;5030034;28;20421;-52
2021/05/26 01:15:00;;;;;;;5.88;1.60;;;12.20;99.90;;;;;;5037054;28;20391;-51
2021/05/26 01:17:27;;;;;;;5.32;1.30;;;12.10;99.90;;;;;;5031203;28;20387;-52
2021/05/26 01:19:53;;;;;;;5.68;1.30;;;12.10;99.90;;;;;;5030881;28;20385;-52
2021/05/26 01:22:18;;;;;;;4.30;1.00;;;12.10;99.90;;;;;;5020917;28;20397;-51
2021/05/26 01:24:44;;;;;;;4.38;1.20;;;12.10;99.90;;;;;;5050907;28;20426;-52
2021/05/26 01:27:10;;;;;;;4.73;1.20;;;12.10;99.90;;;;;;5030646;28;20390;-51
2021/05/26 01:29:35;;;;;;;5.40;1.27;;;12.20;99.90;;;;;;5029858;28;20383;-51
2021/05/26 01:32:01;;;;;;;4.13;1.23;;;12.10;99.90;;;;;;5028797;28;20395;-51
2021/05/26 01:34:27;;;;;;;5.17;1.30;;;12.10;99.90;;;;;;5033426;28;20380;-52
2021/05/26 01:36:52;;;;;;;5.10;1.30;;;12.10;99.90;;;;;;5030423;28;20375;-51
2021/05/26 01:39:20;;;;;;;3.80;1.20;;;12.00;99.90;;;;;;5035641;28;20449;-51
2021/05/26 01:41:46;;;;;;;5.73;1.30;;;12.00;99.90;;;;;;5031067;28;20417;-58
2021/05/26 01:44:12;;;;;;;4.80;1.55;;;12.00;99.90;;;;;;5030400;28;20383;-51
2021/05/26 01:46:38;;;;;;;6.40;1.67;;;12.00;99.90;;;;;;5037162;28;20866;-54
2021/05/26 01:49:04;;;;;;;6.10;1.40;;;11.90;99.90;;;;;;5029946;28;20436;-52
2021/05/26 01:51:31;;;;;;;4.30;1.20;;;11.90;99.90;;;;;;5050162;28;20389;-52
2021/05/26 01:53:57;;;;;;;5.00;1.27;;;11.90;99.90;;;;;;5048785;28;20381;-52
2021/05/26 01:56:27;;;;;;;5.00;1.20;;;11.80;99.90;;;;;;5050164;28;20373;-52
2021/05/26 01:58:54;;;;;;;4.70;1.48;;;11.70;99.90;;;;;;5049217;28;20471;-51
2021/05/26 02:01:22;;;;;;;5.15;1.10;;;11.70;99.90;;;;;;5031899;28;20405;-52
2021/05/26 02:03:48;;;;;;;6.00;1.80;;;11.70;99.90;;;;;;5049387;28;20385;-62
2021/05/26 02:06:15;;;;;;;4.88;1.30;;;11.70;99.90;;;;;;5030686;28;20555;-51
2021/05/26 02:08:44;;;;;;;5.28;1.20;;;11.60;99.90;;;;;;5030279;28;20379;-51
2021/05/26 02:14:02;;;;;;;5.50;1.20;;;11.50;99.90;;;;;;5036453;28;20378;-51
2021/05/26 02:16:28;;;;;;;4.88;1.00;;;11.50;99.90;;;;;;5030645;28;20372;-52
2021/05/26 02:18:54;;;;;;;4.27;1.30;;;11.50;99.90;;;;;;5029656;28;20885;-51
2021/05/26 02:21:20;;;;;;;5.60;1.08;;;11.50;99.90;;;;;;5030082;28;20877;-51
2021/05/26 02:23:45;;;;;;;5.33;1.20;;;11.50;99.90;;;;;;5028994;28;20466;-51
2021/05/26 02:26:11;;;;;;;6.43;1.30;;;11.60;99.90;;;;;;5029814;28;20486;-51
2021/05/26 02:28:37;;;;;;;4.68;1.08;;;11.60;99.90;;;;;;5030054;28;20481;-53
2021/05/26 02:31:03;;;;;;;6.70;1.05;;;11.60;99.90;;;;;;5029705;28;20383;-51
2021/05/26 02:33:28;;;;;;;4.90;1.30;;;11.50;99.90;;;;;;5030634;28;20446;-51
2021/05/26 02:35:54;;;;;;;4.70;1.02;;;11.50;99.90;;;;;;5029663;28;20477;-51
2021/05/26 02:38:20;;;;;;;4.50;1.10;;;11.40;99.90;;;;;;5030253;28;20379;-51
2021/05/26 02:40:45;;;;;;;6.03;1.65;;;11.30;99.90;;;;;;5030362;28;20438;-52
2021/05/26 02:43:11;;;;;;;5.40;1.13;;;11.40;99.90;;;;;;5029436;28;20395;-51
2021/05/26 02:45:37;;;;;;;6.10;1.00;;;11.40;99.90;;;;;;5030134;28;20379;-51
2021/05/26 02:48:04;;;;;;;3.60;1.00;;;11.30;99.90;;;;;;5029351;28;20392;-52
2021/05/26 02:50:30;;;;;;;4.00;1.10;;;11.30;99.90;;;;;;5036171;28;20395;-51
2021/05/26 02:52:56;;;;;;;5.63;1.30;;;11.30;99.90;;;;;;5048137;28;20480;-51
2021/05/26 02:55:23;;;;;;;5.50;1.20;;;11.30;99.90;;;;;;5048951;28;20385;-52
2021/05/26 02:57:49;;;;;;;4.65;1.10;;;11.10;99.90;;;;;;5064200;28;20783;-60
2021/05/26 03:00:18;;;;;;;4.70;1.17;;;11.20;99.90;;;;;;5049077;28;20406;-51
2021/05/26 03:02:44;;;;;;;8.05;1.60;;;11.30;99.90;;;;;;5048823;28;20382;-51
2021/05/26 03:05:11;;;;;;;6.82;1.40;;;11.20;99.90;;;;;;5048336;28;20401;-51
2021/05/26 03:07:38;;;;;;;3.80;1.30;;;11.20;99.90;;;;;;5049444;28;20399;-51
2021/05/26 03:10:06;;;;;;;7.00;1.30;;;11.20;99.90;;;;;;5048247;28;20756;-51
2021/05/26 03:12:31;;;;;;;7.60;1.50;;;11.10;99.90;;;;;;5048634;28;20890;-53
2021/05/26 03:14:57;;;;;;;5.67;1.10;;;11.20;99.90;;;;;;5048009;28;20416;-51
2021/05/26 03:17:24;;;;;;;4.40;0.93;;;11.30;99.90;;;;;;5044653;28;20415;-51
2021/05/26 03:19:50;;;;;;;5.15;1.20;;;11.30;99.90;;;;;;5029554;28;20383;-61
2021/05/26 03:22:15;;;;;;;5.55;1.10;;;11.30;99.90;;;;;;5029375;28;20458;-51
2021/05/26 03:24:41;;;;;;;4.40;1.10;;;11.20;99.90;;;;;;5029583;28;20479;-51
2021/05/26 03:27:07;;;;;;;5.32;1.20;;;11.20;99.90;;;;;;5028694;28;21238;-51
2021/05/26 03:29:32;;;;;;;5.03;1.37;;;11.20;99.90;;;;;;5028476;28;20465;-51
2021/05/26 03:31:58;;;;;;;6.80;1.13;;;11.20;99.90;;;;;;5029451;28;20895;-51
2021/05/26 03:34:24;;;;;;;3.83;1.10;;;11.20;99.90;;;;;;5029958;28;20847;-51
2021/05/26 03:36:50;;;;;;;6.60;1.60;;;11.20;99.90;;;;;;5044760;28;20768;-61
2021/05/26 03:39:17;;;;;;;6.10;1.20;;;11.10;99.90;;;;;;5048000;28;20378;-51
2021/05/26 03:41:43;;;;;;;4.93;1.40;;;11.10;99.90;;;;;;5064297;28;20409;-51
2021/05/26 03:44:09;;;;;;;4.93;1.30;;;11.20;99.90;;;;;;5030174;28;20475;-51
2021/05/26 03:46:36;;;;;;;5.00;1.30;;;11.20;99.90;;;;;;5048743;28;20404;-51
2021/05/26 03:49:04;;;;;;;4.70;1.40;;;11.10;99.90;;;;;;5048290;28;20400;-51
2021/05/26 03:51:30;;;;;;;5.00;1.30;;;11.10;99.90;;;;;;5048671;28;20484;-51
2021/05/26 03:53:56;;;;;;;5.63;1.27;;;11.10;99.90;;;;;;5039789;28;20490;-51
2021/05/26 03:56:22;;;;;;;5.77;1.30;;;11.00;99.90;;;;;;5030713;28;20387;-51
2021/05/26 03:58:48;;;;;;;6.20;1.70;;;11.10;99.90;;;;;;5032937;28;20444;-56
2021/05/26 04:01:14;;;;;;;4.53;1.50;;;11.00;99.90;;;;;;5032397;28;20722;-51
2021/05/26 04:03:39;;;;;;;5.35;1.40;;;11.00;99.90;;;;;;5032984;28;20391;-51
2021/05/26 04:06:05;;;;;;;5.10;1.37;;;11.00;99.90;;;;;;5031837;28;20379;-51
2021/05/26 04:08:31;;;;;;;5.13;1.23;;;11.00;99.90;;;;;;5032821;28;20395;-54
2021/05/26 04:10:57;;;;;;;5.10;1.60;;;11.00;99.90;;;;;;5044615;28;20720;-51
2021/05/26 04:13:22;;;;;;;7.00;1.80;;;11.00;99.90;;;;;;5032882;28;20375;-51
2021/05/26 04:15:48;;;;;;;6.32;1.40;;;11.10;99.90;;;;;;5032628;28;20461;-51
2021/05/26 04:18:14;;;;;;;5.72;1.30;;;11.10;99.90;;;;;;5031875;28;20511;-51
2021/05/26 04:20:39;;;;;;;5.10;1.30;;;11.10;99.90;;;;;;5032317;28;20821;-51
2021/05/26 04:23:05;;;;;;;4.68;1.30;;;11.10;99.90;;;;;;5031900;28;20383;-51
2021/05/26 04:25:31;;;;;;;4.30;1.20;;;11.10;99.90;;;;;;5032689;28;20485;-51
2021/05/26 04:27:57;;;;;;;5.40;1.20;;;11.20;99.90;;;;;;5031788;28;20746;-51
2021/05/26 04:30:23;;;;;;;4.85;1.40;;;11.20;99.90;;;;;;5032345;28;20403;-51
2021/05/26 04:32:49;;;;;;;4.20;1.20;;;11.20;99.90;;;;;;5032504;28;20387;-60
2021/05/26 04:35:15;;;;;;;5.20;1.30;;;11.20;99.90;;;;;;5031800;28;20408;-51
2021/05/26 04:37:41;;;;;;;5.95;1.40;;;11.20;99.90;;;;;;5032193;28;20776;-51
2021/05/26 04:40:07;;;;;;;4.50;1.38;;;11.20;99.90;;;;;;5043061;28;20482;-51
2021/05/26 04:42:33;;;;;;;5.70;1.50;;;11.30;99.90;;;;;;5032085;28;20391;-51
2021/05/26 04:44:58;;;;;;;6.37;1.80;;;11.30;99.90;;;;;;5031474;28;20470;-51
2021/05/26 04:47:24;;;;;;;4.57;1.27;;;11.20;99.90;;;;;;5032228;28;20458;-53
2021/05/26 04:49:49;;;;;;;5.97;1.50;;;11.20;99.90;;;;;;5047597;28;20397;-61
2021/05/26 04:52:15;;;;;;;4.30;1.70;;;11.20;99.90;;;;;;5050718;28;20392;-51
2021/05/26 04:54:41;;;;;;;5.78;1.45;;;11.30;99.90;;;;;;5050929;28;20382;-53
2021/05/26 04:57:07;;;;;;;7.03;1.80;;;11.20;99.90;;;;;;5050265;28;20382;-51
2021/05/26 04:59:32;;;;;;;4.97;1.40;;;11.20;99.90;;;;;;5051131;28;20397;-51
2021/05/26 05:01:58;;;;;;;5.50;1.70;;;11.20;99.90;;;;;;5049560;28;20482;-51
2021/05/26 05:04:24;;;;;;;4.70;1.20;;;11.10;99.90;;;;;;5050919;28;20396;-52
2021/05/26 05:06:49;;;;;;;6.47;1.60;;;11.20;99.90;;;;;;5065680;28;20389;-61
2021/05/26 05:09:15;;;;;;;4.90;1.20;;;11.20;99.90;;;;;;5050374;28;20381;-51
2021/05/26 05:11:41;;;;;;;6.82;1.50;;;11.30;99.90;;;;;;5050876;28;20389;-53
2021/05/26 05:14:06;;;;;;;4.70;1.43;;;11.20;99.90;;;;;;5050310;28;20709;-51
2021/05/26 05:16:32;;;;;;;4.70;1.30;;;11.20;99.90;;;;;;5044694;28;20436;-51
2021/05/26 05:18:58;;;;;;;6.50;1.60;;;11.20;99.90;;;;;;5030689;28;20892;-56
2021/05/26 05:21:24;;;;;;;4.90;1.57;;;11.20;99.90;;;;;;5039159;28;20871;-51
2021/05/26 05:23:50;;;;;;;5.32;1.50;;;11.00;99.90;;;;;;5054285;28;20411;-61
2021/05/26 05:26:16;;;;;;;5.40;1.40;;;11.00;99.90;;;;;;5053210;28;20904;-52
2021/05/26 05:28:42;;;;;;;5.10;1.40;;;11.00;99.90;;;;;;5051386;28;20387;-51
2021/05/26 05:31:10;;;;;;;5.00;1.50;;;11.00;99.90;;;;;;5041749;28;20883;-52
2021/05/26 05:33:36;;;;;;;4.55;1.50;;;10.90;99.90;;;;;;5057948;28;20410;-51
2021/05/26 05:36:02;;;;;;;4.40;1.30;;;10.90;99.90;;;;;;5056637;28;20375;-51
2021/05/26 05:38:28;;;;;;;5.90;1.60;;;10.80;99.90;;;;;;5028820;28;20399;-51
2021/05/26 05:40:53;;;;;;;6.38;1.60;;;10.90;99.90;;;;;;5038186;28;20484;-62
2021/05/26 05:43:19;;;;;;;6.30;1.60;;;11.00;99.90;;;;;;5039016;28;20974;-51
2021/05/26 05:45:45;;;;;;;4.90;1.30;;;11.00;99.90;;;;;;5050139;28;20461;-51
2021/05/26 05:48:11;;;;;;;3.80;1.27;;;10.90;99.90;;;;;;5048695;28;20389;-51
2021/05/26 05:50:37;;;;;;;7.47;1.60;;;11.00;99.90;;;;;;5050275;28;20456;-54
2021/05/26 05:53:06;;;;;;;4.70;1.50;;;10.90;99.90;;;;;;5036933;28;20418;-51
2021/05/26 05:55:32;;;;;;;4.78;1.48;;;11.00;99.90;;;;;;5035324;28;20399;-51
2021/05/26 05:58:02;;;;;;;3.75;1.23;;;11.10;99.90;;;;;;5034100;28;20422;-51
2021/05/26 06:00:27;;;;;;;3.80;1.30;;;11.10;99.90;;;;;;5030348;28;20421;-51
2021/05/26 06:02:53;;;;;;;4.60;1.30;;;11.20;99.90;;;;;;5032484;28;20391;-60
2021/05/26 06:05:19;;;;;;;7.85;1.50;;;11.10;99.90;;;;;;5030835;28;20435;-51
2021/05/26 06:07:44;;;;;;;5.00;1.50;;;11.10;99.90;;;;;;5030089;28;20434;-51
2021/05/26 06:10:11;;;;;;;3.95;1.23;;;11.00;99.90;;;;;;5032227;28;20965;-51
2021/05/26 06:12:36;;;;;;;6.15;1.67;;;11.00;99.90;;;;;;5049091;28;20416;-51
2021/05/26 06:15:03;;;;;;;7.17;2.17;;;11.00;99.90;;;;;;5048408;28;20424;-51
2021/05/26 06:17:29;;;;;;;5.00;1.70;;;10.90;99.90;;;;;;5030712;28;20794;-51
2021/05/26 06:19:55;;;;;;;5.22;1.50;;;11.00;99.90;;;;;;5030469;28;20390;-52
2021/05/26 06:22:20;;;;;;;5.70;1.70;;;11.10;99.90;;;;;;5049073;28;20381;-51
2021/05/26 06:24:46;;;;;;;5.82;1.42;;;11.00;99.90;;;;;;5017899;28;20386;-52
2021/05/26 06:27:12;;;;;;;5.67;1.50;;;11.10;99.90;;;;;;5031051;28;20387;-51
2021/05/26 06:29:38;;;;;;;4.68;1.50;;;11.20;99.90;;;;;;5029943;28;20421;-51
2021/05/26 06:32:04;;;;;;;7.57;1.70;;;11.30;99.90;;;;;;5029164;28;20856;-52
2021/05/26 06:34:29;;;;;;;10.50;1.85;;;11.30;99.90;;;;;;5029453;28;20382;-53
2021/05/26 06:36:55;;;;;;;6.17;1.80;;;11.40;99.90;;;;;;5029065;28;20860;-56
2021/05/26 06:39:20;;;;;;;6.33;1.77;;;11.40;99.90;;;;;;5029852;28;20449;-51
2021/05/26 06:41:46;;;;;;;8.65;2.00;;;11.50;99.90;;;;;;5029870;28;20485;-51
2021/05/26 06:44:12;;;;;;;4.47;1.80;;;11.60;99.90;;;;;;5028745;28;20925;-51
2021/05/26 06:46:39;;;;;;;5.00;1.60;;;11.60;99.90;;;;;;5031561;28;20389;-52
2021/05/26 06:49:04;;;;;;;9.00;2.20;;;11.50;99.90;;;;;;5047842;28;21045;-54
2021/05/26 06:51:30;;;;;;;4.65;1.40;;;11.50;99.90;;;;;;5048924;28;20485;-51
2021/05/26 06:53:56;;;;;;;6.40;1.80;;;11.20;99.90;;;;;;5047937;28;20374;-53
2021/05/26 06:56:22;;;;;;;5.63;1.70;;;11.20;99.90;;;;;;5048912;28;20790;-51
2021/05/26 06:58:48;;;;;;;4.80;1.65;;;11.30;99.90;;;;;;5048477;28;20454;-54
2021/05/26 07:01:13;;;;;;;4.90;1.70;;;11.50;99.90;;;;;;5041990;28;20415;-51
2021/05/26 07:03:39;;;;;;;6.82;2.00;;;11.50;99.90;;;;;;5045251;28;20391;-51
2021/05/26 07:06:04;;;;;;;5.03;1.53;;;11.60;99.90;;;;;;5029165;28;20887;-52
2021/05/26 07:08:31;;;;;;;5.50;1.70;;;11.80;99.90;;;;;;5029410;28;20837;-50
2021/05/26 07:10:57;;;;;;;5.05;1.50;;;11.70;99.90;;;;;;5028854;28;20387;-51
2021/05/26 07:13:23;;;;;;;5.47;1.80;;;11.90;99.90;;;;;;5029533;28;20482;-52
2021/05/26 07:15:48;;;;;;;6.43;1.70;;;12.00;99.90;;;;;;5030066;28;20379;-50
2021/05/26 07:18:14;;;;;;;6.50;2.10;;;12.00;99.90;;;;;;5028045;28;21019;-50
2021/05/26 07:20:43;;;;;;;4.68;1.60;;;12.00;99.90;;;;;;5029530;28;20478;-50
2021/05/26 07:23:10;;;;;;;7.93;1.98;;;12.00;99.90;;;;;;5028668;28;20391;-50
2021/05/26 07:25:35;;;;;;;5.35;1.70;;;11.90;99.90;;;;;;5044125;28;20403;-50
2021/05/26 07:28:01;;;;;;;6.10;2.00;;;11.90;99.90;;;;;;5028716;28;20372;-51
2021/05/26 07:30:27;;;;;;;7.57;1.77;;;12.10;99.90;;;;;;5031126;28;20861;-51
2021/05/26 07:32:53;;;;;;;6.37;1.80;;;12.00;99.90;;;;;;5033308;28;20888;-62
2021/05/26 07:35:18;;;;;;;5.50;1.55;;;12.00;99.90;;;;;;5032199;28;20819;-50
2021/05/26 07:37:44;;;;;;;5.07;2.03;;;12.10;99.90;;;;;;5033428;28;20382;-51
2021/05/26 07:40:11;;;;;;;5.72;2.10;;;11.90;99.90;;;;;;5031821;28;20383;-51
2021/05/26 07:42:37;;;;;;;5.68;1.80;;;11.90;99.90;;;;;;5045850;28;20382;-50
2021/05/26 07:45:04;;;;;;;4.68;1.70;;;12.00;99.90;;;;;;5051165;28;20393;-51
2021/05/26 07:47:30;;;;;;;5.15;2.00;;;12.10;99.90;;;;;;5052079;28;20370;-52
2021/05/26 07:49:55;;;;;;;4.72;1.90;;;12.20;99.90;;;;;;5051422;28;20460;-62
2021/05/26 07:52:21;;;;;;;5.40;1.40;;;12.20;99.90;;;;;;5051860;28;20381;-51
2021/05/26 07:54:50;;;;;;;4.72;1.63;;;12.30;99.90;;;;;;5051552;28;20388;-51
2021/05/26 07:57:16;;;;;;;4.90;1.70;;;12.30;99.90;;;;;;5050288;28;20394;-51
2021/05/26 07:59:44;;;;;;;7.30;2.25;;;12.40;99.90;;;;;;5030542;28;20454;-51
2021/05/26 08:02:11;;;;;;;5.25;1.70;;;12.30;99.90;;;;;;5041667;28;20441;-51
2021/05/26 08:04:37;;;;;;;7.07;2.40;;;12.30;99.90;;;;;;5033393;28;20404;-51
2021/05/26 08:07:03;;;;;;;6.50;2.00;;;12.30;99.90;;;;;;5035522;28;20740;-52
2021/05/26 08:09:28;;;;;;;7.38;2.10;;;12.40;99.90;;;;;;5031728;28;20440;-60
2021/05/26 08:11:54;;;;;;;5.60;1.90;;;12.30;99.90;;;;;;5036229;28;20391;-62
2021/05/26 08:14:20;;;;;;;7.50;2.10;;;12.50;99.90;;;;;;5031578;28;20868;-51
2021/05/26 08:16:52;;;;;;;6.75;1.95;;;12.50;99.90;;;;;;5031032;28;20749;-51
2021/05/26 08:19:17;;;;;;;6.05;2.15;;;12.70;99.90;;;;;;5031913;28;20436;-53
2021/05/26 08:21:43;;;;;;;5.90;1.65;;;12.80;99.90;;;;;;5032095;28;20411;-51
2021/05/26 08:24:11;;;;;;;4.75;1.80;;;12.90;99.90;;;;;;5034904;28;20914;-51
2021/05/26 08:26:36;;;;;;;7.68;2.20;;;12.60;99.90;;;;;;5031792;28;20382;-51
2021/05/26 08:29:06;;;;;;;5.57;1.80;;;12.40;99.90;;;;;;5031770;28;20917;-51
2021/05/26 08:31:32;;;;;;;6.90;2.05;;;12.40;99.90;;;;;;5034151;28;20408;-51
2021/05/26 08:33:58;;;;;;;6.13;1.70;;;12.50;99.90;;;;;;5050705;28;20377;-51
2021/05/26 08:36:24;;;;;;;5.80;1.70;;;12.20;99.90;;;;;;5040719;28;20466;-51
2021/05/26 08:38:51;;;;;;;4.95;1.90;;;12.10;99.90;;;;;;5039995;28;20513;-51
2021/05/26 08:41:19;;;;;;;7.70;1.90;;;12.20;99.90;;;;;;5040649;28;20512;-51
2021/05/26 08:43:45;;;;;;;5.65;1.73;;;12.10;99.90;;;;;;5051097;28;20428;-52
2021/05/26 08:46:11;;;;;;;4.90;1.42;;;12.20;99.90;;;;;;5031751;28;20946;-51
2021/05/26 08:48:37;;;;;;;4.50;1.20;;;12.00;99.90;;;;;;5031549;28;20376;-51
2021/05/26 08:51:10;;;;;;;6.20;1.77;;;11.80;99.90;;;;;;5036122;28;20869;-52
2021/05/26 08:53:36;;;;;;;5.53;1.35;;;11.80;99.90;;;;;;5031819;28;20407;-52
2021/05/26 08:56:03;;;;;;;5.80;1.50;;;11.80;99.90;;;;;;5030990;28;20387;-51
2021/05/26 08:58:28;;;;;;;5.40;1.80;;;12.10;99.90;;;;;;5031701;28;20383;-52
2021/05/26 09:00:54;;;;;;;6.90;1.80;;;12.10;99.90;;;;;;5033895;28;20417;-60
2021/05/26 09:03:20;;;;;;;4.95;1.50;;;12.30;99.90;;;;;;5031809;28;20390;-52
2021/05/26 09:05:53;;;;;;;5.37;1.60;;;12.60;99.90;;;;;;5031533;28;20407;-51
2021/05/26 09:08:23;;;;;;;4.40;1.30;;;12.30;99.90;;;;;;5031834;28;20872;-51
2021/05/26 09:11:02;;;;;;;4.40;1.55;;;12.30;99.90;;;;;;5030730;28;20406;-58
2021/05/26 09:13:36;;;;;;;4.60;1.40;;;12.30;99.90;;;;;;5031350;28;20451;-51
2021/05/26 09:16:22;;;;;;;5.53;1.70;;;12.10;99.90;;;;;;5012233;28;20396;-51
2021/05/26 09:18:55;;;;;;;4.60;1.50;;;12.10;99.90;;;;;;5038640;28;20913;-51
2021/05/26 09:21:40;;;;;;;4.88;1.38;;;12.20;99.90;;;;;;5031942;28;20578;-51
2021/05/26 09:24:27;;;;;;;6.10;1.70;;;12.10;99.90;;;;;;5049682;28;20408;-52
2021/05/26 09:27:11;;;;;;;5.70;1.40;;;12.30;99.90;;;;;;5050151;28;20844;-52
2021/05/26 09:29:37;;;;;;;8.93;2.10;;;12.10;99.90;;;;;;5049823;28;20443;-52
2021/05/26 09:32:09;;;;;;;6.07;1.80;;;12.30;99.90;;;;;;5044018;28;20413;-51
2021/05/26 09:34:37;;;;;;;6.47;1.83;;;12.40;99.90;;;;;;5030722;28;20388;-54
2021/05/26 09:37:06;;;;;;;4.80;1.60;;;12.20;99.90;;;;;;5030387;28;20375;-51
2021/05/26 09:39:52;;;;;;;8.82;1.70;;;12.30;99.90;;;;;;5030966;28;20437;-52
2021/05/26 09:42:35;;;;;;;8.23;1.60;;;12.40;99.90;;;;;;5029251;28;20399;-53
2021/05/26 09:45:27;;;;;;;7.00;1.60;;;12.30;99.90;;;;;;5035897;28;20430;-52
2021/05/26 09:47:55;;;;;;;7.60;2.00;;;12.60;99.90;;;;;;5030936;28;20438;-52
2021/05/26 09:50:28;;;;;;;6.60;1.60;;;12.60;99.90;;;;;;5029749;28;20383;-51
2021/05/26 09:53:12;;;;;;;6.53;1.48;;;12.40;99.90;;;;;;5030760;28;20489;-51
2021/05/26 09:55:39;;;;;;;6.07;1.67;;;12.60;99.90;;;;;;5045212;28;20373;-51
2021/05/26 09:58:10;;;;;;;6.20;1.80;;;12.70;99.90;;;;;;5048814;28;20382;-51
2021/05/26 10:00:37;;;;;;;5.65;1.40;;;12.80;99.90;;;;;;5047593;28;20901;-52
2021/05/26 10:03:04;;;;;;;4.90;1.40;;;13.00;99.90;;;;;;5029836;28;20385;-52
2021/05/26 10:05:30;;;;;;;6.55;1.50;;;13.20;99.90;;;;;;5030300;28;20410;-52
2021/05/26 10:07:58;;;;;;;4.25;1.33;;;12.70;99.90;;;;;;5034752;28;20391;-59
2021/05/26 10:10:28;;;;;;;7.40;1.80;;;12.60;99.90;;;;;;5029453;28;20735;-52
2021/05/26 10:13:03;;;;;;;5.18;1.60;;;12.80;99.90;;;;;;5030770;28;20391;-52
2021/05/26 10:15:30;;;;;;;4.13;1.30;;;13.10;99.90;;;;;;5035931;28;20423;-52
2021/05/26 10:17:58;;;;;;;4.30;1.30;;;13.20;99.90;;;;;;5035640;28;20458;-51
2021/05/26 10:20:25;;;;;;;4.28;1.40;;;13.10;99.90;;;;;;5036840;28;20391;-51
2021/05/26 10:22:56;;;;;;;4.40;1.30;;;12.80;99.90;;;;;;5029480;28;20456;-54
2021/05/26 10:25:22;;;;;;;5.70;1.30;;;12.90;99.90;;;;;;5028874;28;20490;-52
2021/05/26 10:27:55;;;;;;;5.18;1.40;;;13.20;99.90;;;;;;5032020;28;21171;-52
2021/05/26 10:30:27;;;;;;;5.30;1.10;;;13.40;99.90;;;;;;5028650;28;20860;-54
2021/05/26 10:32:59;;;;;;;4.35;1.00;;;13.40;99.90;;;;;;5030251;28;20466;-51
2021/05/26 10:35:49;;;;;;;4.20;0.90;;;13.10;99.90;;;;;;5044853;28;20478;-52
2021/05/26 10:38:14;;;;;;;4.13;0.80;;;13.00;99.90;;;;;;5043640;28;20448;-51
2021/05/26 10:40:42;;;;;;;4.80;1.00;;;12.90;99.90;;;;;;5030959;28;20932;-52
2021/05/26 10:43:15;;;;;;;3.55;0.80;;;13.20;99.90;;;;;;5027491;28;20438;-54
2021/05/26 10:45:41;;;;;;;3.70;0.75;;;12.80;99.90;;;;;;5036554;28;20386;-53
2021/05/26 10:48:07;;;;;;;4.70;0.90;;;13.00;99.90;;;;;;5041922;28;20459;-54
2021/05/26 10:50:55;;;;;;;3.40;0.70;;;13.30;99.90;;;;;;5040457;28;20378;-52
2021/05/26 10:53:23;;;;;;;3.03;0.60;;;13.30;99.90;;;;;;5041580;28;20413;-54
2021/05/26 10:55:50;;;;;;;3.35;0.80;;;13.50;99.90;;;;;;5037665;28;20509;-52
2021/05/26 10:58:19;;;;;;;3.15;0.60;;;13.90;99.90;;;;;;5032526;28;20387;-52
2021/05/26 11:00:46;;;;;;;3.80;0.70;;;13.80;99.90;;;;;;5029643;28;20407;-52
2021/05/26 11:03:24;;;;;;;3.50;0.70;;;13.80;99.90;;;;;;5028735;28;20387;-53
2021/05/26 11:05:54;;;;;;;3.90;0.55;;;13.60;99.90;;;;;;5033692;28;20408;-53
2021/05/26 11:08:26;;;;;;;3.60;0.80;;;13.70;99.90;;;;;;5038523;28;20659;-52
2021/05/26 11:10:52;;;;;;;4.10;0.80;;;13.60;99.90;;;;;;5048867;28;20792;-53
2021/05/26 11:13:18;;;;;;;3.15;0.70;;;13.40;99.90;;;;;;5057445;28;20387;-56
2021/05/26 11:15:48;;;;;;;3.10;0.70;;;13.50;99.90;;;;;;5042947;28;20379;-51
2021/05/26 11:18:22;;;;;;;3.60;0.70;;;13.10;99.90;;;;;;5043779;28;20471;-51
2021/05/26 11:20:47;;;;;;;3.65;0.80;;;13.10;99.90;;;;;;5043720;28;20414;-56
2021/05/26 11:23:15;;;;;;;3.60;0.90;;;13.50;99.90;;;;;;5040778;28;20409;-51
2021/05/26 11:25:57;;;;;;;3.40;0.70;;;13.40;99.90;;;;;;5045906;28;20735;-51
2021/05/26 11:28:31;;;;;;;3.23;0.60;;;13.30;99.90;;;;;;5050344;28;20398;-51
2021/05/26 11:31:05;;;;;;;4.13;1.10;;;13.40;99.90;;;;;;5044596;28;20436;-52
2021/05/26 11:33:31;;;;;;;3.58;0.70;;;13.60;99.90;;;;;;5033425;28;20514;-53
2021/05/26 11:36:05;;;;;;;3.83;1.00;;;13.30;99.90;;;;;;5032951;28;20387;-55
2021/05/26 11:38:31;;;;;;;3.75;0.90;;;13.30;99.90;;;;;;5033369;28;20391;-51
2021/05/26 11:40:58;;;;;;;4.20;0.80;;;13.30;99.90;;;;;;5037029;28;20411;-53
2021/05/26 11:43:24;;;;;;;4.60;1.23;;;13.40;99.90;;;;;;5043536;28;20525;-51
2021/05/26 11:46:04;;;;;;;4.18;0.82;;;13.20;99.90;;;;;;5047705;28;20390;-55
2021/05/26 11:48:29;;;;;;;3.42;0.80;;;13.10;99.90;;;;;;5043298;28;20497;-52
2021/05/26 11:50:55;;;;;;;4.10;1.27;;;13.30;99.90;;;;;;5062120;28;20407;-51
2021/05/26 11:53:21;;;;;;;4.38;1.00;;;13.70;99.90;;;;;;5049008;28;21155;-51
2021/05/26 11:55:48;;;;;;;7.63;0.90;;;14.00;99.90;;;;;;5045104;28;20735;-51
2021/05/26 11:58:27;;;;;;;3.63;1.00;;;14.30;99.90;;;;;;5041620;28;20928;-54
2021/05/26 12:01:03;;;;;;;4.57;1.02;;;14.10;99.90;;;;;;5048799;28;20811;-54
2021/05/26 12:03:30;;;;;;;4.00;1.10;;;13.80;99.90;;;;;;5047315;28;20438;-51
2021/05/26 12:05:56;;;;;;;3.33;0.80;;;14.10;99.90;;;;;;5046770;28;20401;-51
2021/05/26 12:08:23;;;;;;;4.38;1.23;;;14.20;99.90;;;;;;5030759;28;20651;-51
2021/05/26 12:11:01;;;;;;;3.33;0.80;;;14.40;99.90;;;;;;5049258;28;20389;-51
2021/05/26 12:13:32;;;;;;;3.75;1.00;;;14.30;99.90;;;;;;5048686;28;20556;-51
2021/05/26 12:16:01;;;;;;;4.70;1.20;;;14.60;99.90;;;;;;5048240;28;20422;-54
2021/05/26 12:18:28;;;;;;;5.50;1.00;;;14.50;99.90;;;;;;5040963;28;20989;-52
2021/05/26 12:20:55;;;;;;;5.37;0.93;;;14.60;99.90;;;;;;5041443;28;20417;-51
2021/05/26 12:23:41;;;;;;;4.90;1.10;;;14.80;99.90;;;;;;5039469;28;20562;-51
2021/05/26 12:26:25;;;;;;;3.40;0.90;;;15.10;99.90;;;;;;5042020;28;20440;-51
2021/05/26 12:28:59;;;;;;;3.80;0.98;;;15.10;99.90;;;;;;5044636;28;20400;-51
2021/05/26 12:31:29;;;;;;;4.60;0.88;;;14.70;99.90;;;;;;5042696;28;20450;-51
2021/05/26 12:33:56;;;;;;;5.80;1.17;;;15.00;99.90;;;;;;5047957;28;20454;-51
2021/05/26 12:36:27;;;;;;;3.60;0.80;;;14.80;99.90;;;;;;5047138;28;20424;-51
2021/05/26 12:39:02;;;;;;;4.07;0.70;;;14.90;99.90;;;;;;5036587;28;20386;-51
2021/05/26 12:41:32;;;;;;;3.80;0.73;;;15.00;99.90;;;;;;5037106;28;20414;-52
2021/05/26 12:44:08;;;;;;;4.33;0.90;;;15.10;99.90;;;;;;5035245;28;20436;-51
2021/05/26 12:46:48;;;;;;;6.00;0.82;;;15.20;99.90;;;;;;5037627;28;20440;-51
2021/05/26 12:49:30;;;;;;;3.30;0.80;;;14.90;99.90;;;;;;5037568;28;20440;-56
2021/05/26 12:52:09;;;;;;;3.70;1.00;;;14.80;99.90;;;;;;5041275;28;20487;-55
2021/05/26 12:54:43;;;;;;;4.13;1.00;;;14.90;99.90;;;;;;5047113;28;20908;-56